sensor_id;sensor_type;location;lat;lon;timestamp;pressure;altitude;pressure_sealevel;temperature;humidity
76653;BME280;65563;45.970;12.680;2023-04-03T00:00:53;101051.25;;;11.69;68.79
76653;BME280;65563;45.970;12.680;2023-04-03T00:01:53;101050.41;;;11.68;68.68
76653;BME280;65563;45.970;12.680;2023-04-03T00:02:53;101061.63;;;11.64;69.07
76653;BME280;65563;45.970;12.680;2023-04-03T00:03:53;101063.59;;;11.55;69.22
76653;BME280;65563;45.970;12.680;2023-04-03T00:04:53;101057.94;;;11.65;69.09
76653;BME280;65563;45.970;12.680;2023-04-03T00:05:54;101060.91;;;11.55;69.25
76653;BME280;65563;45.970;12.680;2023-04-03T00:06:54;101064.03;;;11.44;69.68
76653;BME280;65563;45.970;12.680;2023-04-03T00:07:54;101069.06;;;11.54;69.37
76653;BME280;65563;45.970;12.680;2023-04-03T00:08:54;101058.72;;;11.59;68.53
76653;BME280;65563;45.970;12.680;2023-04-03T00:09:54;101064.47;;;11.62;68.16
76653;BME280;65563;45.970;12.680;2023-04-03T00:10:55;101064.47;;;11.62;67.97
76653;BME280;65563;45.970;12.680;2023-04-03T00:11:55;101066.69;;;11.59;68.51
76653;BME280;65563;45.970;12.680;2023-04-03T00:12:55;101062.56;;;11.56;68.54
76653;BME280;65563;45.970;12.680;2023-04-03T00:13:55;101060.03;;;11.48;68.61
76653;BME280;65563;45.970;12.680;2023-04-03T00:14:55;101056.34;;;11.49;68.13
76653;BME280;65563;45.970;12.680;2023-04-03T00:15:55;101056.78;;;11.53;67.63
76653;BME280;65563;45.970;12.680;2023-04-03T00:16:56;101052.28;;;11.53;67.54
76653;BME280;65563;45.970;12.680;2023-04-03T00:17:56;101050.00;;;11.50;67.54
76653;BME280;65563;45.970;12.680;2023-04-03T00:18:56;101051.09;;;11.56;67.37
76653;BME280;65563;45.970;12.680;2023-04-03T00:19:56;101050.38;;;11.47;67.63
76653;BME280;65563;45.970;12.680;2023-04-03T00:20:56;101049.38;;;11.48;67.82
76653;BME280;65563;45.970;12.680;2023-04-03T00:21:57;101045.63;;;11.42;67.75
76653;BME280;65563;45.970;12.680;2023-04-03T00:22:57;101061.59;;;11.42;67.69
76653;BME280;65563;45.970;12.680;2023-04-03T00:23:57;101050.56;;;11.45;67.70
76653;BME280;65563;45.970;12.680;2023-04-03T00:24:57;101052.50;;;11.37;67.90
76653;BME280;65563;45.970;12.680;2023-04-03T00:25:57;101058.47;;;11.39;67.54
76653;BME280;65563;45.970;12.680;2023-04-03T00:26:58;101053.25;;;11.31;68.60
76653;BME280;65563;45.970;12.680;2023-04-03T00:27:58;101052.91;;;11.34;68.50
76653;BME280;65563;45.970;12.680;2023-04-03T00:28:58;101051.88;;;11.35;68.65
76653;BME280;65563;45.970;12.680;2023-04-03T00:29:58;101041.53;;;11.25;68.89
76653;BME280;65563;45.970;12.680;2023-04-03T00:30:58;101043.53;;;11.38;68.84
76653;BME280;65563;45.970;12.680;2023-04-03T00:31:59;101043.03;;;11.49;68.02
76653;BME280;65563;45.970;12.680;2023-04-03T00:32:59;101042.75;;;11.44;67.94
76653;BME280;65563;45.970;12.680;2023-04-03T00:33:59;101043.09;;;11.34;68.28
76653;BME280;65563;45.970;12.680;2023-04-03T00:34:59;101039.88;;;11.24;68.19
76653;BME280;65563;45.970;12.680;2023-04-03T00:36:04;101039.34;;;11.14;68.87
76653;BME280;65563;45.970;12.680;2023-04-03T00:37:04;101041.19;;;11.13;68.57
76653;BME280;65563;45.970;12.680;2023-04-03T00:38:04;101042.34;;;11.26;67.97
76653;BME280;65563;45.970;12.680;2023-04-03T00:39:05;101045.28;;;11.16;68.43
76653;BME280;65563;45.970;12.680;2023-04-03T00:40:05;101050.00;;;10.99;68.86
76653;BME280;65563;45.970;12.680;2023-04-03T00:41:05;101051.56;;;10.79;69.59
76653;BME280;65563;45.970;12.680;2023-04-03T00:42:06;101060.59;;;10.69;70.89
76653;BME280;65563;45.970;12.680;2023-04-03T00:43:14;101060.50;;;10.63;70.92
76653;BME280;65563;45.970;12.680;2023-04-03T00:44:21;101056.38;;;10.60;71.04
76653;BME280;65563;45.970;12.680;2023-04-03T00:45:37;101059.56;;;10.70;70.33
76653;BME280;65563;45.970;12.680;2023-04-03T00:46:38;101052.09;;;10.74;69.93
76653;BME280;65563;45.970;12.680;2023-04-03T00:47:38;101045.47;;;10.70;70.04
76653;BME280;65563;45.970;12.680;2023-04-03T00:48:40;101046.03;;;10.80;69.30
76653;BME280;65563;45.970;12.680;2023-04-03T00:49:41;101053.47;;;10.85;69.03
76653;BME280;65563;45.970;12.680;2023-04-03T00:50:42;101055.75;;;10.88;68.84
76653;BME280;65563;45.970;12.680;2023-04-03T00:51:43;101051.44;;;10.87;68.78
76653;BME280;65563;45.970;12.680;2023-04-03T00:52:43;101051.09;;;10.90;68.81
76653;BME280;65563;45.970;12.680;2023-04-03T00:53:46;101050.44;;;10.88;68.45
76653;BME280;65563;45.970;12.680;2023-04-03T00:54:47;101058.59;;;10.86;68.64
76653;BME280;65563;45.970;12.680;2023-04-03T00:55:48;101047.78;;;10.88;68.96
76653;BME280;65563;45.970;12.680;2023-04-03T00:56:50;101050.53;;;10.80;69.05
76653;BME280;65563;45.970;12.680;2023-04-03T00:57:51;101050.81;;;10.85;68.78
76653;BME280;65563;45.970;12.680;2023-04-03T00:58:54;101050.16;;;10.83;68.76
76653;BME280;65563;45.970;12.680;2023-04-03T00:59:59;101048.88;;;10.79;69.09
76653;BME280;65563;45.970;12.680;2023-04-03T01:01:00;101042.66;;;10.86;69.07
76653;BME280;65563;45.970;12.680;2023-04-03T01:02:03;101043.13;;;10.75;69.21
76653;BME280;65563;45.970;12.680;2023-04-03T01:03:03;101045.88;;;10.82;68.91
76653;BME280;65563;45.970;12.680;2023-04-03T01:04:04;101044.59;;;10.92;68.54
76653;BME280;65563;45.970;12.680;2023-04-03T01:05:04;101040.47;;;10.90;68.97
76653;BME280;65563;45.970;12.680;2023-04-03T01:06:05;101043.22;;;10.82;68.69
76653;BME280;65563;45.970;12.680;2023-04-03T01:08:08;101047.59;;;10.74;68.96
76653;BME280;65563;45.970;12.680;2023-04-03T01:09:08;101051.25;;;10.73;68.95
76653;BME280;65563;45.970;12.680;2023-04-03T01:10:10;101055.03;;;10.64;69.37
76653;BME280;65563;45.970;12.680;2023-04-03T01:11:10;101050.44;;;10.73;69.17
76653;BME280;65563;45.970;12.680;2023-04-03T01:12:15;101052.53;;;10.63;69.24
76653;BME280;65563;45.970;12.680;2023-04-03T01:13:33;101056.09;;;10.55;69.26
76653;BME280;65563;45.970;12.680;2023-04-03T01:14:34;101051.03;;;10.45;69.93
76653;BME280;65563;45.970;12.680;2023-04-03T01:15:34;101052.25;;;10.43;69.56
76653;BME280;65563;45.970;12.680;2023-04-03T01:16:34;101049.22;;;10.46;69.49
76653;BME280;65563;45.970;12.680;2023-04-03T01:17:35;101042.34;;;10.51;69.71
76653;BME280;65563;45.970;12.680;2023-04-03T01:18:37;101042.25;;;10.60;69.01
76653;BME280;65563;45.970;12.680;2023-04-03T01:19:38;101040.81;;;10.57;69.13
76653;BME280;65563;45.970;12.680;2023-04-03T01:20:49;101041.88;;;10.48;68.98
76653;BME280;65563;45.970;12.680;2023-04-03T01:22:01;101052.16;;;10.51;68.93
76653;BME280;65563;45.970;12.680;2023-04-03T01:25:11;101047.91;;;10.42;68.83
76653;BME280;65563;45.970;12.680;2023-04-03T01:26:11;101039.34;;;10.55;68.76
76653;BME280;65563;45.970;12.680;2023-04-03T01:27:11;101036.31;;;10.43;68.68
76653;BME280;65563;45.970;12.680;2023-04-03T01:28:15;101041.97;;;10.40;68.42
76653;BME280;65563;45.970;12.680;2023-04-03T01:29:16;101040.50;;;10.37;68.68
76653;BME280;65563;45.970;12.680;2023-04-03T01:30:16;101044.97;;;10.37;68.28
76653;BME280;65563;45.970;12.680;2023-04-03T01:32:17;101042.13;;;10.38;68.48
76653;BME280;65563;45.970;12.680;2023-04-03T01:33:17;101044.22;;;10.28;68.62
76653;BME280;65563;45.970;12.680;2023-04-03T01:34:18;101044.88;;;10.30;68.35
76653;BME280;65563;45.970;12.680;2023-04-03T01:35:18;101042.78;;;10.25;68.64
76653;BME280;65563;45.970;12.680;2023-04-03T01:36:20;101035.66;;;10.18;68.79
76653;BME280;65563;45.970;12.680;2023-04-03T01:37:20;101053.72;;;10.22;68.42
76653;BME280;65563;45.970;12.680;2023-04-03T01:38:20;101045.75;;;10.22;68.80
76653;BME280;65563;45.970;12.680;2023-04-03T01:39:21;101043.09;;;10.22;68.50
76653;BME280;65563;45.970;12.680;2023-04-03T01:40:21;101042.56;;;10.27;68.58
76653;BME280;65563;45.970;12.680;2023-04-03T01:41:21;101042.78;;;10.25;68.39
76653;BME280;65563;45.970;12.680;2023-04-03T01:42:22;101042.28;;;10.22;68.45
76653;BME280;65563;45.970;12.680;2023-04-03T01:43:22;101044.97;;;10.14;69.12
76653;BME280;65563;45.970;12.680;2023-04-03T01:44:22;101034.72;;;10.11;69.05
76653;BME280;65563;45.970;12.680;2023-04-03T01:45:22;101037.66;;;10.16;68.99
76653;BME280;65563;45.970;12.680;2023-04-03T01:46:22;101034.00;;;10.17;68.65
76653;BME280;65563;45.970;12.680;2023-04-03T01:47:23;101034.44;;;10.06;68.77
76653;BME280;65563;45.970;12.680;2023-04-03T01:48:23;101037.13;;;10.20;68.61
76653;BME280;65563;45.970;12.680;2023-04-03T01:49:23;101025.94;;;10.10;68.52
76653;BME280;65563;45.970;12.680;2023-04-03T01:50:23;101032.19;;;9.94;69.12
76653;BME280;65563;45.970;12.680;2023-04-03T01:51:23;101030.72;;;9.92;69.38
76653;BME280;65563;45.970;12.680;2023-04-03T01:52:24;101035.56;;;9.88;69.64
76653;BME280;65563;45.970;12.680;2023-04-03T01:53:24;101035.13;;;9.99;69.19
76653;BME280;65563;45.970;12.680;2023-04-03T01:54:24;101033.78;;;10.03;68.85
76653;BME280;65563;45.970;12.680;2023-04-03T01:55:24;101043.09;;;9.99;69.00
76653;BME280;65563;45.970;12.680;2023-04-03T01:56:24;101037.91;;;10.06;68.61
76653;BME280;65563;45.970;12.680;2023-04-03T01:57:25;101039.81;;;9.97;68.84
76653;BME280;65563;45.970;12.680;2023-04-03T01:58:25;101030.72;;;9.92;69.09
76653;BME280;65563;45.970;12.680;2023-04-03T01:59:25;101031.63;;;9.84;69.47
76653;BME280;65563;45.970;12.680;2023-04-03T02:00:25;101030.44;;;9.87;69.29
76653;BME280;65563;45.970;12.680;2023-04-03T02:01:26;101034.97;;;9.78;69.52
76653;BME280;65563;45.970;12.680;2023-04-03T02:02:26;101039.16;;;9.72;69.68
76653;BME280;65563;45.970;12.680;2023-04-03T02:03:26;101031.41;;;9.86;69.31
76653;BME280;65563;45.970;12.680;2023-04-03T02:04:26;101038.81;;;9.98;69.28
76653;BME280;65563;45.970;12.680;2023-04-03T02:05:26;101039.00;;;9.97;69.06
76653;BME280;65563;45.970;12.680;2023-04-03T02:06:26;101038.41;;;9.87;69.06
76653;BME280;65563;45.970;12.680;2023-04-03T02:07:27;101031.88;;;9.89;69.25
76653;BME280;65563;45.970;12.680;2023-04-03T02:08:27;101028.53;;;9.95;68.88
76653;BME280;65563;45.970;12.680;2023-04-03T02:09:27;101030.13;;;9.82;69.13
76653;BME280;65563;45.970;12.680;2023-04-03T02:10:27;101023.81;;;9.83;68.96
76653;BME280;65563;45.970;12.680;2023-04-03T02:11:27;101027.31;;;9.83;69.29
76653;BME280;65563;45.970;12.680;2023-04-03T02:12:27;101027.41;;;9.90;68.89
76653;BME280;65563;45.970;12.680;2023-04-03T02:13:28;101026.22;;;9.92;69.03
76653;BME280;65563;45.970;12.680;2023-04-03T02:14:28;101025.75;;;9.89;69.04
76653;BME280;65563;45.970;12.680;2023-04-03T02:15:28;101021.75;;;9.93;68.69
76653;BME280;65563;45.970;12.680;2023-04-03T02:16:28;101024.25;;;9.94;68.52
76653;BME280;65563;45.970;12.680;2023-04-03T02:17:28;101027.53;;;9.96;68.61
76653;BME280;65563;45.970;12.680;2023-04-03T02:18:29;101021.72;;;10.01;68.36
76653;BME280;65563;45.970;12.680;2023-04-03T02:19:29;101025.41;;;9.92;68.36
76653;BME280;65563;45.970;12.680;2023-04-03T02:20:29;101018.63;;;9.89;68.83
76653;BME280;65563;45.970;12.680;2023-04-03T02:21:29;101022.66;;;9.85;68.72
76653;BME280;65563;45.970;12.680;2023-04-03T02:22:29;101027.47;;;9.82;68.91
76653;BME280;65563;45.970;12.680;2023-04-03T02:23:30;101024.53;;;9.76;69.19
76653;BME280;65563;45.970;12.680;2023-04-03T02:24:30;101022.53;;;9.78;69.25
76653;BME280;65563;45.970;12.680;2023-04-03T02:25:30;101020.22;;;9.75;69.06
76653;BME280;65563;45.970;12.680;2023-04-03T02:26:31;101020.34;;;9.82;68.92
76653;BME280;65563;45.970;12.680;2023-04-03T02:27:31;101021.47;;;9.88;68.87
76653;BME280;65563;45.970;12.680;2023-04-03T02:28:31;101031.88;;;9.89;68.50
76653;BME280;65563;45.970;12.680;2023-04-03T02:29:31;101022.47;;;9.87;68.56
76653;BME280;65563;45.970;12.680;2023-04-03T02:30:32;101030.72;;;9.92;68.75
76653;BME280;65563;45.970;12.680;2023-04-03T02:31:32;101024.41;;;9.93;68.53
76653;BME280;65563;45.970;12.680;2023-04-03T02:32:32;101024.06;;;9.96;68.14
76653;BME280;65563;45.970;12.680;2023-04-03T02:33:33;101017.00;;;9.88;68.24
76653;BME280;65563;45.970;12.680;2023-04-03T02:34:33;101023.72;;;9.76;68.65
76653;BME280;65563;45.970;12.680;2023-04-03T02:35:33;101025.75;;;9.89;68.37
76653;BME280;65563;45.970;12.680;2023-04-03T02:36:33;101020.47;;;9.89;68.20
76653;BME280;65563;45.970;12.680;2023-04-03T02:37:33;101024.41;;;9.93;68.24
76653;BME280;65563;45.970;12.680;2023-04-03T02:38:34;101019.28;;;9.91;68.03
76653;BME280;65563;45.970;12.680;2023-04-03T02:39:34;101024.13;;;9.88;68.57
76653;BME280;65563;45.970;12.680;2023-04-03T02:40:34;101021.63;;;9.86;68.04
76653;BME280;65563;45.970;12.680;2023-04-03T02:41:34;101021.47;;;9.88;67.99
76653;BME280;65563;45.970;12.680;2023-04-03T02:42:35;101020.78;;;9.94;67.77
76653;BME280;65563;45.970;12.680;2023-04-03T02:43:35;101024.75;;;9.90;67.89
76653;BME280;65563;45.970;12.680;2023-04-03T02:44:35;101023.66;;;9.84;68.07
76653;BME280;65563;45.970;12.680;2023-04-03T02:45:36;101023.75;;;9.68;68.82
76653;BME280;65563;45.970;12.680;2023-04-03T02:46:36;101026.53;;;9.74;68.47
76653;BME280;65563;45.970;12.680;2023-04-03T02:47:36;101021.34;;;9.81;68.34
76653;BME280;65563;45.970;12.680;2023-04-03T02:48:36;101024.81;;;9.82;68.57
76653;BME280;65563;45.970;12.680;2023-04-03T02:49:36;101022.16;;;9.82;68.29
76653;BME280;65563;45.970;12.680;2023-04-03T02:50:37;101022.16;;;9.82;68.57
76653;BME280;65563;45.970;12.680;2023-04-03T02:51:37;101027.53;;;9.73;68.66
76653;BME280;65563;45.970;12.680;2023-04-03T02:52:37;101023.28;;;9.64;68.64
76653;BME280;65563;45.970;12.680;2023-04-03T02:53:37;101022.94;;;9.67;68.72
76653;BME280;65563;45.970;12.680;2023-04-03T02:54:37;101027.22;;;9.68;68.57
76653;BME280;65563;45.970;12.680;2023-04-03T02:55:37;101018.88;;;9.56;69.55
76653;BME280;65563;45.970;12.680;2023-04-03T02:56:38;101025.66;;;9.59;69.58
76653;BME280;65563;45.970;12.680;2023-04-03T02:57:38;101022.31;;;9.65;69.17
76653;BME280;65563;45.970;12.680;2023-04-03T02:58:38;101017.38;;;9.54;68.93
76653;BME280;65563;45.970;12.680;2023-04-03T02:59:38;101020.16;;;9.61;69.05
76653;BME280;65563;45.970;12.680;2023-04-03T03:00:38;101025.38;;;9.46;69.21
76653;BME280;65563;45.970;12.680;2023-04-03T03:01:39;101020.69;;;9.56;68.85
76653;BME280;65563;45.970;12.680;2023-04-03T03:02:39;101018.88;;;9.56;69.29
76653;BME280;65563;45.970;12.680;2023-04-03T03:03:39;101024.50;;;9.53;69.48
76653;BME280;65563;45.970;12.680;2023-04-03T03:04:39;101014.91;;;9.52;68.93
76653;BME280;65563;45.970;12.680;2023-04-03T03:05:39;101019.41;;;9.52;69.32
76653;BME280;65563;45.970;12.680;2023-04-03T03:06:39;101017.50;;;9.61;69.12
76653;BME280;65563;45.970;12.680;2023-04-03T03:07:40;101011.78;;;9.49;69.11
76653;BME280;65563;45.970;12.680;2023-04-03T03:08:40;101016.81;;;9.36;70.21
76653;BME280;65563;45.970;12.680;2023-04-03T03:09:40;101017.38;;;9.54;69.45
76653;BME280;65563;45.970;12.680;2023-04-03T03:10:41;101018.03;;;9.56;69.04
76653;BME280;65563;45.970;12.680;2023-04-03T03:11:41;101021.31;;;9.58;69.25
76653;BME280;65563;45.970;12.680;2023-04-03T03:12:41;101011.25;;;9.53;69.37
76653;BME280;65563;45.970;12.680;2023-04-03T03:13:41;101016.41;;;9.55;69.06
76653;BME280;65563;45.970;12.680;2023-04-03T03:14:41;101014.44;;;9.49;69.37
76653;BME280;65563;45.970;12.680;2023-04-03T03:15:42;101020.44;;;9.43;69.56
76653;BME280;65563;45.970;12.680;2023-04-03T03:16:42;101016.16;;;9.33;69.74
76653;BME280;65563;45.970;12.680;2023-04-03T03:17:42;101019.06;;;9.47;69.03
76653;BME280;65563;45.970;12.680;2023-04-03T03:18:42;101016.97;;;9.42;69.33
76653;BME280;65563;45.970;12.680;2023-04-03T03:19:43;101011.38;;;9.37;69.25
76653;BME280;65563;45.970;12.680;2023-04-03T03:20:43;101013.69;;;9.32;69.39
76653;BME280;65563;45.970;12.680;2023-04-03T03:21:44;101019.34;;;9.29;69.63
76653;BME280;65563;45.970;12.680;2023-04-03T03:22:44;101015.88;;;9.28;69.93
76653;BME280;65563;45.970;12.680;2023-04-03T03:23:44;101012.59;;;9.18;70.08
76653;BME280;65563;45.970;12.680;2023-04-03T03:24:44;101017.13;;;9.10;70.01
76653;BME280;65563;45.970;12.680;2023-04-03T03:25:44;101015.47;;;9.08;70.38
76653;BME280;65563;45.970;12.680;2023-04-03T03:26:44;101013.78;;;9.16;69.91
76653;BME280;65563;45.970;12.680;2023-04-03T03:27:45;101012.81;;;9.08;70.21
76653;BME280;65563;45.970;12.680;2023-04-03T03:28:45;101016.94;;;9.11;70.30
76653;BME280;65563;45.970;12.680;2023-04-03T03:29:45;101010.38;;;8.99;70.43
76653;BME280;65563;45.970;12.680;2023-04-03T03:30:45;101010.38;;;8.99;70.97
76653;BME280;65563;45.970;12.680;2023-04-03T03:31:45;101017.28;;;9.16;70.43
76653;BME280;65563;45.970;12.680;2023-04-03T03:32:46;101015.78;;;9.14;70.42
76653;BME280;65563;45.970;12.680;2023-04-03T03:33:46;101018.91;;;9.17;70.38
76653;BME280;65563;45.970;12.680;2023-04-03T03:34:46;101017.13;;;9.10;70.75
76653;BME280;65563;45.970;12.680;2023-04-03T03:35:46;101013.03;;;8.99;70.81
76653;BME280;65563;45.970;12.680;2023-04-03T03:36:46;101025.94;;;8.94;71.25
76653;BME280;65563;45.970;12.680;2023-04-03T03:37:47;101016.69;;;8.90;71.26
76653;BME280;65563;45.970;12.680;2023-04-03T03:38:47;101020.84;;;8.92;71.46
76653;BME280;65563;45.970;12.680;2023-04-03T03:39:47;101021.84;;;8.83;71.61
76653;BME280;65563;45.970;12.680;2023-04-03T03:40:48;101023.00;;;8.80;71.44
76653;BME280;65563;45.970;12.680;2023-04-03T03:41:48;101022.03;;;8.81;71.47
76653;BME280;65563;45.970;12.680;2023-04-03T03:42:48;101024.00;;;8.79;71.21
76653;BME280;65563;45.970;12.680;2023-04-03T03:43:48;101021.06;;;8.74;71.81
76653;BME280;65563;45.970;12.680;2023-04-03T03:44:48;101019.38;;;8.73;71.80
76653;BME280;65563;45.970;12.680;2023-04-03T03:45:52;101016.09;;;8.63;72.55
76653;BME280;65563;45.970;12.680;2023-04-03T03:46:52;101024.19;;;8.78;72.20
76653;BME280;65563;45.970;12.680;2023-04-03T03:47:52;101016.56;;;8.83;72.04
76653;BME280;65563;45.970;12.680;2023-04-03T03:48:53;101017.38;;;8.83;71.81
76653;BME280;65563;45.970;12.680;2023-04-03T03:49:53;101020.22;;;8.82;71.51
76653;BME280;65563;45.970;12.680;2023-04-03T03:50:53;101021.97;;;8.98;71.09
76653;BME280;65563;45.970;12.680;2023-04-03T03:51:53;101017.31;;;9.00;71.01
76653;BME280;65563;45.970;12.680;2023-04-03T03:52:53;101020.13;;;9.06;70.80
76653;BME280;65563;45.970;12.680;2023-04-03T03:53:53;101019.94;;;9.08;70.94
76653;BME280;65563;45.970;12.680;2023-04-03T03:54:54;101023.94;;;9.04;70.82
76653;BME280;65563;45.970;12.680;2023-04-03T03:55:54;101021.13;;;8.97;70.91
76653;BME280;65563;45.970;12.680;2023-04-03T03:56:54;101020.31;;;8.97;71.14
76653;BME280;65563;45.970;12.680;2023-04-03T03:57:54;101023.25;;;9.02;70.85
76653;BME280;65563;45.970;12.680;2023-04-03T03:58:54;101024.13;;;8.94;70.83
76653;BME280;65563;45.970;12.680;2023-04-03T03:59:55;101022.28;;;9.03;70.65
76653;BME280;65563;45.970;12.680;2023-04-03T04:00:55;101018.88;;;8.86;71.35
76653;BME280;65563;45.970;12.680;2023-04-03T04:01:55;101020.06;;;8.75;71.78
76653;BME280;65563;45.970;12.680;2023-04-03T04:02:55;101021.66;;;8.93;70.75
76653;BME280;65563;45.970;12.680;2023-04-03T04:03:55;101026.19;;;8.76;71.11
76653;BME280;65563;45.970;12.680;2023-04-03T04:04:56;101025.72;;;8.64;71.49
76653;BME280;65563;45.970;12.680;2023-04-03T04:05:56;101023.41;;;8.61;71.47
76653;BME280;65563;45.970;12.680;2023-04-03T04:06:56;101020.94;;;8.51;71.87
76653;BME280;65563;45.970;12.680;2023-04-03T04:07:56;101024.91;;;8.47;72.12
76653;BME280;65563;45.970;12.680;2023-04-03T04:08:56;101024.25;;;8.53;72.01
76653;BME280;65563;45.970;12.680;2023-04-03T04:09:57;101027.06;;;8.44;72.51
76653;BME280;65563;45.970;12.680;2023-04-03T04:10:57;101022.59;;;8.36;72.46
76653;BME280;65563;45.970;12.680;2023-04-03T04:11:57;101026.38;;;8.33;72.95
76653;BME280;65563;45.970;12.680;2023-04-03T04:12:57;101025.41;;;8.34;73.02
76653;BME280;65563;45.970;12.680;2023-04-03T04:13:57;101028.53;;;8.54;72.18
76653;BME280;65563;45.970;12.680;2023-04-03T04:14:58;101033.66;;;8.56;71.70
76653;BME280;65563;45.970;12.680;2023-04-03T04:15:58;101031.16;;;8.63;71.56
76653;BME280;65563;45.970;12.680;2023-04-03T04:16:58;101026.34;;;8.66;71.73
76653;BME280;65563;45.970;12.680;2023-04-03T04:17:58;101032.53;;;8.50;72.32
76653;BME280;65563;45.970;12.680;2023-04-03T04:18:58;101028.03;;;8.67;71.42
76653;BME280;65563;45.970;12.680;2023-04-03T04:19:58;101035.13;;;8.67;71.22
76653;BME280;65563;45.970;12.680;2023-04-03T04:20:59;101031.00;;;8.72;71.16
76653;BME280;65563;45.970;12.680;2023-04-03T04:21:59;101035.31;;;8.65;71.35
76653;BME280;65563;45.970;12.680;2023-04-03T04:22:59;101029.06;;;8.50;71.66
76653;BME280;65563;45.970;12.680;2023-04-03T04:23:59;101034.00;;;8.61;71.60
76653;BME280;65563;45.970;12.680;2023-04-03T04:24:59;101033.38;;;8.43;71.88
76653;BME280;65563;45.970;12.680;2023-04-03T04:26:00;101037.31;;;8.55;71.46
76653;BME280;65563;45.970;12.680;2023-04-03T04:27:00;101032.19;;;8.45;71.63
76653;BME280;65563;45.970;12.680;2023-04-03T04:28:00;101042.63;;;8.39;72.31
76653;BME280;65563;45.970;12.680;2023-04-03T04:29:01;101046.25;;;8.38;72.50
76653;BME280;65563;45.970;12.680;2023-04-03T04:30:01;101043.78;;;8.36;72.32
76653;BME280;65563;45.970;12.680;2023-04-03T04:31:01;101050.22;;;8.25;72.80
76653;BME280;65563;45.970;12.680;2023-04-03T04:32:02;101040.97;;;8.29;72.84
76653;BME280;65563;45.970;12.680;2023-04-03T04:33:02;101043.25;;;8.24;72.75
76653;BME280;65563;45.970;12.680;2023-04-03T04:34:02;101041.97;;;8.28;72.84
76653;BME280;65563;45.970;12.680;2023-04-03T04:35:03;101044.44;;;8.30;72.56
76653;BME280;65563;45.970;12.680;2023-04-03T04:36:03;101046.06;;;8.31;72.79
76653;BME280;65563;45.970;12.680;2023-04-03T04:37:03;101041.78;;;8.30;72.34
76653;BME280;65563;45.970;12.680;2023-04-03T04:38:03;101045.09;;;8.40;72.17
76653;BME280;65563;45.970;12.680;2023-04-03T04:39:03;101047.09;;;8.38;71.90
76653;BME280;65563;45.970;12.680;2023-04-03T04:40:04;101039.00;;;8.40;71.37
76653;BME280;65563;45.970;12.680;2023-04-03T04:41:04;101034.53;;;8.40;71.41
76653;BME280;65563;45.970;12.680;2023-04-03T04:42:04;101044.09;;;8.33;71.66
76653;BME280;65563;45.970;12.680;2023-04-03T04:43:04;101040.97;;;8.29;72.08
76653;BME280;65563;45.970;12.680;2023-04-03T04:44:04;101043.91;;;8.34;71.86
76653;BME280;65563;45.970;12.680;2023-04-03T04:45:05;101044.25;;;8.31;72.07
76653;BME280;65563;45.970;12.680;2023-04-03T04:46:06;101047.22;;;8.36;71.65
76653;BME280;65563;45.970;12.680;2023-04-03T04:47:06;101043.41;;;8.31;72.11
76653;BME280;65563;45.970;12.680;2023-04-03T04:48:06;101046.56;;;8.34;71.52
76653;BME280;65563;45.970;12.680;2023-04-03T04:49:07;101035.69;;;8.38;71.70
76653;BME280;65563;45.970;12.680;2023-04-03T04:50:07;101038.63;;;8.34;71.58
76653;BME280;65563;45.970;12.680;2023-04-03T04:51:07;101040.13;;;8.45;71.49
76653;BME280;65563;45.970;12.680;2023-04-03T04:52:07;101046.88;;;8.31;71.56
76653;BME280;65563;45.970;12.680;2023-04-03T04:53:07;101049.38;;;8.17;71.87
76653;BME280;65563;45.970;12.680;2023-04-03T04:54:08;101049.56;;;8.15;72.23
76653;BME280;65563;45.970;12.680;2023-04-03T04:55:08;101050.88;;;8.11;72.45
76653;BME280;65563;45.970;12.680;2023-04-03T04:56:08;101053.69;;;8.09;72.29
76653;BME280;65563;45.970;12.680;2023-04-03T04:57:09;101054.03;;;8.15;72.13
76653;BME280;65563;45.970;12.680;2023-04-03T04:58:09;101054.84;;;8.15;72.17
76653;BME280;65563;45.970;12.680;2023-04-03T04:59:09;101056.16;;;8.27;71.75
76653;BME280;65563;45.970;12.680;2023-04-03T05:00:09;101055.16;;;8.20;72.00
76653;BME280;65563;45.970;12.680;2023-04-03T05:01:10;101052.84;;;8.33;71.33
76653;BME280;65563;45.970;12.680;2023-04-03T05:02:10;101057.16;;;8.34;71.18
76653;BME280;65563;45.970;12.680;2023-04-03T05:03:10;101056.50;;;8.32;71.11
76653;BME280;65563;45.970;12.680;2023-04-03T05:04:10;101060.47;;;8.28;71.12
76653;BME280;65563;45.970;12.680;2023-04-03T05:05:11;101056.81;;;8.21;71.32
76653;BME280;65563;45.970;12.680;2023-04-03T05:06:11;101062.59;;;8.25;71.48
76653;BME280;65563;45.970;12.680;2023-04-03T05:07:11;101055.50;;;8.17;71.38
76653;BME280;65563;45.970;12.680;2023-04-03T05:08:11;101061.94;;;8.31;70.82
76653;BME280;65563;45.970;12.680;2023-04-03T05:09:11;101059.13;;;8.16;71.30
76653;BME280;65563;45.970;12.680;2023-04-03T05:10:11;101058.81;;;8.19;71.34
76653;BME280;65563;45.970;12.680;2023-04-03T05:11:12;101062.13;;;8.29;70.83
76653;BME280;65563;45.970;12.680;2023-04-03T05:12:12;101060.63;;;8.10;71.82
76653;BME280;65563;45.970;12.680;2023-04-03T05:13:12;101064.09;;;8.03;72.22
76653;BME280;65563;45.970;12.680;2023-04-03T05:14:13;101060.47;;;8.20;71.53
76653;BME280;65563;45.970;12.680;2023-04-03T05:15:13;101057.16;;;8.26;71.77
76653;BME280;65563;45.970;12.680;2023-04-03T05:16:13;101053.84;;;8.16;71.60
76653;BME280;65563;45.970;12.680;2023-04-03T05:17:13;101063.13;;;8.28;71.87
76653;BME280;65563;45.970;12.680;2023-04-03T05:18:13;101065.25;;;8.17;72.28
76653;BME280;65563;45.970;12.680;2023-04-03T05:19:13;101066.75;;;8.19;71.96
76653;BME280;65563;45.970;12.680;2023-04-03T05:20:14;101071.72;;;8.22;71.47